Résultats de la compétition "6 jours de l'Aveyron - Etape 1" du 03-08-2008 organisée par le comité départemental du 12 - Aveyron
     
  Télécharger le fichier CSV.  
     
     

 Circuit "Q"

Licence Nom Prénom Temps CN
précédent
Score sur
la course
Différence
2557VOGTChristiane0:48:2433873877+490
395BLASCONicole0:49:0733453821+476
1380DIEUDONNEMadeleine0:52:0542153603-612
6886FRANTZFrancoise0:54:4028453433+588
2182PROSTGisele1:03:0225372977+440
3302JEANPIERREM-Therese1:03:2230142961-53
5033THIEBAULTMonique1:04:3942282903-1325
145COUPATCatherine1:05:2827732866+93
1106NATALIAnnie1:06:0227572842+85
5497COCAULTYvonne1:06:3030892822-267
16634BAUDOINAnnie1:08:2022442746+502
2680KIEFFERMireille1:10:3027202662-58
8954BASTIEN-FATHNicole1:16:0019732469+496
701ABISSEGisele1:18:2229592395-564
3185PASCAUDClaire1:18:3720522387+335
1098MULLERM-Anne1:21:2324052306-99
14245RICHARDNicole1:25:0424632206-257
17LEVEQUEPaulette1:26:2813912170+779
9AULAGNONMireille1:34:03N/A1995N/A
6443GEOFFROYNicole1:34:2423861988-398
3619LAGOIDETColette1:36:1925671948-619
15894LUDEWIG-JAMESCarol1:46:0617371769+32
2546DESAINTJANAlice1:51:2420071684-323
1444BEGUINOTM-Louise2:04:2413901508+118
8121LEBIAN DEROMEAnnie3:40:252114851-1263
6826DUVOUXFranceN/A27200-2720

  Indice de confiance du circuit (moyenne des différences entre CN et score sur la course des 3 à 10 premiers) : 261






 Retour